createdAt,value
2023-04-04T00:00:46.833Z,99.90
2023-04-04T00:03:16.672Z,99.90
2023-04-04T00:05:45.941Z,99.90
2023-04-04T00:08:14.275Z,99.90
2023-04-04T00:10:42.852Z,99.90
2023-04-04T00:13:11.436Z,99.90
2023-04-04T00:15:39.735Z,99.90
2023-04-04T00:18:08.062Z,99.90
2023-04-04T00:20:37.882Z,99.90
2023-04-04T00:23:06.517Z,99.90
2023-04-04T00:25:35.363Z,99.90
2023-04-04T00:28:03.718Z,99.90
2023-04-04T00:30:32.434Z,99.90
2023-04-04T00:33:01.913Z,99.90
2023-04-04T00:35:30.455Z,99.90
2023-04-04T00:38:00.432Z,99.90
2023-04-04T00:40:28.779Z,99.90
2023-04-04T00:42:57.618Z,99.90
2023-04-04T00:45:26.039Z,99.90
2023-04-04T00:47:56.238Z,99.90
2023-04-04T00:50:24.606Z,99.90
2023-04-04T00:52:52.967Z,99.90
2023-04-04T00:55:22.650Z,99.90
2023-04-04T00:57:51.449Z,99.90
2023-04-04T01:00:20.361Z,99.90
2023-04-04T01:02:48.701Z,99.90
2023-04-04T01:05:17.265Z,99.90
2023-04-04T01:07:45.769Z,99.90
2023-04-04T01:10:14.110Z,99.90
2023-04-04T01:12:44.571Z,99.90
2023-04-04T01:15:13.152Z,99.90
2023-04-04T01:17:43.629Z,99.90
2023-04-04T01:20:15.678Z,99.90
2023-04-04T01:22:50.603Z,99.90
2023-04-04T01:25:21.432Z,99.90
2023-04-04T01:27:57.998Z,99.90
2023-04-04T01:30:31.562Z,99.90
2023-04-04T01:33:05.525Z,99.90
2023-04-04T01:35:40.531Z,99.90
2023-04-04T01:38:19.389Z,99.90
2023-04-04T01:40:50.655Z,99.90
2023-04-04T01:43:22.477Z,99.90
2023-04-04T01:45:50.910Z,99.90
2023-04-04T01:48:20.776Z,99.90
2023-04-04T01:50:52.949Z,99.90
2023-04-04T01:53:22.143Z,99.90
2023-04-04T01:55:50.397Z,99.90
2023-04-04T01:58:18.910Z,99.90
2023-04-04T02:00:48.485Z,99.90
2023-04-04T02:03:17.494Z,99.90
2023-04-04T02:05:46.341Z,99.90
2023-04-04T02:08:15.817Z,99.90
2023-04-04T02:10:51.858Z,99.90
2023-04-04T02:13:20.246Z,99.90
2023-04-04T02:15:52.348Z,99.90
2023-04-04T02:18:21.294Z,99.90
2023-04-04T02:20:57.381Z,99.90
2023-04-04T02:23:25.765Z,99.90
2023-04-04T02:25:54.104Z,99.90
2023-04-04T02:28:22.640Z,99.90
2023-04-04T02:30:52.433Z,99.90
2023-04-04T02:33:20.868Z,99.90
2023-04-04T02:35:50.603Z,99.90
2023-04-04T02:38:19.094Z,99.90
2023-04-04T02:40:48.515Z,99.90
2023-04-04T02:43:16.991Z,99.90
2023-04-04T02:45:46.035Z,99.90
2023-04-04T02:48:25.722Z,99.90
2023-04-04T02:50:56.235Z,99.90
2023-04-04T02:53:24.760Z,99.90
2023-04-04T02:55:56.034Z,99.90
2023-04-04T02:58:24.699Z,99.90
2023-04-04T03:00:55.758Z,99.90
2023-04-04T03:03:30.645Z,99.90
2023-04-04T03:06:00.715Z,99.90
2023-04-04T03:08:29.178Z,99.90
2023-04-04T03:11:00.288Z,99.90
2023-04-04T03:13:28.651Z,99.90
2023-04-04T03:16:02.642Z,99.90
2023-04-04T03:18:36.642Z,99.90
2023-04-04T03:21:05.087Z,99.90
2023-04-04T03:23:33.638Z,99.90
2023-04-04T03:26:02.064Z,99.90
2023-04-04T03:28:30.573Z,99.90
2023-04-04T03:31:06.010Z,99.90
2023-04-04T03:33:38.999Z,99.90
2023-04-04T03:36:11.891Z,99.90
2023-04-04T03:38:41.288Z,99.90
2023-04-04T03:41:12.225Z,99.90
2023-04-04T03:43:40.634Z,99.90
2023-04-04T03:46:09.354Z,99.90
2023-04-04T03:48:39.270Z,99.90
2023-04-04T03:51:10.717Z,99.90
2023-04-04T03:53:39.978Z,99.90
2023-04-04T03:56:09.208Z,99.90
2023-04-04T03:58:37.710Z,99.90
2023-04-04T04:01:05.979Z,99.90
2023-04-04T04:03:34.545Z,99.90
2023-04-04T04:06:04.346Z,99.90
2023-04-04T04:08:32.696Z,99.90
2023-04-04T04:11:05.594Z,99.90
2023-04-04T04:13:35.999Z,99.90
2023-04-04T04:16:05.236Z,99.90
2023-04-04T04:18:34.392Z,99.90
2023-04-04T04:21:05.297Z,99.90
2023-04-04T04:23:34.990Z,99.90
2023-04-04T04:26:03.778Z,99.90
2023-04-04T04:28:34.096Z,99.90
2023-04-04T04:31:08.253Z,99.90
2023-04-04T04:33:43.068Z,99.90
2023-04-04T04:36:13.143Z,99.90
2023-04-04T04:38:51.901Z,99.90
2023-04-04T04:41:20.381Z,99.90
2023-04-04T04:43:52.499Z,99.90
2023-04-04T04:46:22.006Z,99.90
2023-04-04T04:48:50.822Z,99.90
2023-04-04T04:51:26.166Z,99.90
2023-04-04T04:53:56.943Z,99.90
2023-04-04T04:56:27.248Z,99.90
2023-04-04T04:59:00.074Z,99.90
2023-04-04T05:01:29.546Z,99.90
2023-04-04T05:03:59.195Z,99.90
2023-04-04T05:06:39.159Z,99.90
2023-04-04T05:09:11.082Z,99.90
2023-04-04T05:11:40.171Z,99.90
2023-04-04T05:14:10.674Z,99.90
2023-04-04T05:16:49.007Z,99.90
2023-04-04T05:19:18.760Z,99.90
2023-04-04T05:21:53.891Z,99.90
2023-04-04T05:24:32.862Z,99.90
2023-04-04T05:27:02.418Z,99.90
2023-04-04T05:29:36.866Z,99.90
2023-04-04T05:32:06.119Z,99.90
2023-04-04T05:34:36.629Z,99.90
2023-04-04T05:37:10.107Z,99.90
2023-04-04T05:39:39.523Z,99.90
2023-04-04T05:42:10.574Z,99.90
2023-04-04T05:44:44.632Z,99.90
2023-04-04T05:47:13.449Z,99.90
2023-04-04T05:49:45.918Z,99.90
2023-04-04T05:52:16.185Z,99.90
2023-04-04T05:54:44.868Z,99.90
2023-04-04T05:57:18.503Z,99.90
2023-04-04T05:59:52.490Z,99.90
2023-04-04T06:02:20.899Z,99.90
2023-04-04T06:04:55.715Z,99.90
2023-04-04T06:07:33.813Z,99.90
2023-04-04T06:10:02.174Z,99.90
2023-04-04T06:12:31.660Z,99.90
2023-04-04T06:15:00.850Z,99.90
2023-04-04T06:17:30.260Z,99.90
2023-04-04T06:19:58.708Z,99.90
2023-04-04T06:22:26.944Z,99.90
2023-04-04T06:24:58.024Z,99.90
2023-04-04T06:27:28.535Z,99.90
2023-04-04T06:29:58.786Z,99.90
2023-04-04T06:32:28.072Z,99.90
2023-04-04T06:34:56.493Z,99.90
2023-04-04T06:37:39.320Z,99.90
2023-04-04T06:40:17.282Z,99.90
2023-04-04T06:42:50.418Z,99.90
2023-04-04T06:45:19.342Z,99.90
2023-04-04T06:47:50.058Z,99.90
2023-04-04T06:50:18.884Z,99.90
2023-04-04T06:52:49.626Z,99.90
2023-04-04T06:55:19.792Z,99.90
2023-04-04T06:57:48.091Z,92.90
2023-04-04T07:00:17.194Z,91.80
2023-04-04T07:02:45.703Z,85.40
2023-04-04T07:05:17.772Z,74.70
2023-04-04T07:07:46.970Z,68.40
2023-04-04T07:10:15.407Z,54.70
2023-04-04T07:12:45.042Z,56.20
2023-04-04T07:15:13.631Z,54.20
2023-04-04T07:17:42.374Z,55.20
2023-04-04T07:20:11.556Z,54.30
2023-04-04T07:22:40.521Z,49.70
2023-04-04T07:25:10.124Z,44.40
2023-04-04T07:27:38.436Z,47.00
2023-04-04T07:30:09.456Z,43.40
2023-04-04T07:32:38.192Z,26.80
2023-04-04T07:35:08.010Z,24.80
2023-04-04T07:37:38.185Z,22.30
2023-04-04T07:40:09.400Z,15.00
2023-04-04T07:42:38.089Z,12.50
2023-04-04T07:45:09.015Z,6.60
2023-04-04T07:47:37.392Z,33.40
2023-04-04T07:50:06.448Z,15.90
2023-04-04T07:52:35.194Z,4.30
2023-04-04T07:55:03.565Z,1.00
2023-04-04T07:57:32.025Z,1.00
2023-04-04T08:00:05.387Z,1.00
2023-04-04T08:02:45.486Z,1.00
2023-04-04T08:05:13.907Z,1.00
2023-04-04T08:07:42.648Z,1.00
2023-04-04T08:10:11.753Z,1.00
2023-04-04T08:12:40.705Z,1.00
2023-04-04T08:15:09.966Z,1.00
2023-04-04T08:17:38.611Z,1.00
2023-04-04T08:20:09.538Z,1.00
2023-04-04T08:22:38.418Z,1.00
2023-04-04T08:25:07.634Z,1.00
2023-04-04T08:27:36.027Z,1.00
2023-04-04T08:30:04.934Z,1.00
2023-04-04T08:32:33.333Z,1.00
2023-04-04T08:35:01.621Z,1.00
2023-04-04T08:37:31.229Z,1.00
2023-04-04T08:40:00.427Z,1.00
2023-04-04T08:42:29.557Z,1.00
2023-04-04T08:45:00.604Z,1.00
2023-04-04T08:47:32.320Z,1.00
2023-04-04T08:50:01.564Z,1.00
2023-04-04T08:52:32.276Z,1.00
2023-04-04T08:55:01.222Z,1.00
2023-04-04T08:57:30.154Z,1.00
2023-04-04T08:59:59.117Z,1.00
2023-04-04T09:02:31.560Z,1.00
2023-04-04T09:05:06.809Z,1.00
2023-04-04T09:07:39.420Z,1.00
2023-04-04T09:10:10.900Z,1.00
2023-04-04T09:12:41.114Z,1.00
2023-04-04T09:15:10.952Z,1.00
2023-04-04T09:17:39.509Z,1.00
2023-04-04T09:20:35.817Z,1.00
2023-04-04T09:23:07.966Z,1.00
2023-04-04T09:25:37.120Z,1.00
2023-04-04T09:28:06.198Z,1.00
2023-04-04T09:30:35.822Z,1.00
2023-04-04T09:33:06.199Z,1.00
2023-04-04T09:35:36.470Z,1.00
2023-04-04T09:38:07.346Z,1.00
2023-04-04T09:40:36.884Z,1.00
2023-04-04T09:43:08.375Z,1.00
2023-04-04T09:45:39.867Z,1.00
2023-04-04T09:48:08.914Z,1.00
2023-04-04T09:50:39.513Z,1.00
2023-04-04T09:53:09.207Z,1.00
2023-04-04T09:55:38.573Z,1.00
2023-04-04T09:58:15.322Z,1.00
2023-04-04T10:00:48.419Z,1.00
2023-04-04T10:03:17.778Z,1.00
2023-04-04T10:05:47.090Z,1.00
2023-04-04T10:08:18.617Z,1.00
2023-04-04T10:11:02.713Z,1.00
2023-04-04T10:13:41.027Z,1.00
2023-04-04T10:16:11.077Z,1.00
2023-04-04T10:18:40.164Z,1.00
2023-04-04T10:23:43.732Z,1.00
2023-04-04T10:26:13.247Z,1.00
2023-04-04T10:28:43.865Z,1.00
2023-04-04T10:31:19.141Z,1.00
2023-04-04T10:33:51.936Z,1.00
2023-04-04T10:36:23.813Z,1.00
2023-04-04T10:39:02.502Z,1.00
2023-04-04T10:41:33.551Z,1.00
2023-04-04T10:44:05.344Z,1.00
2023-04-04T10:46:36.032Z,1.00
2023-04-04T10:49:05.513Z,1.00
2023-04-04T10:51:42.072Z,1.00
2023-04-04T10:54:19.429Z,1.00
2023-04-04T10:56:48.569Z,1.00
2023-04-04T10:59:18.237Z,1.00
2023-04-04T11:01:51.263Z,1.00
2023-04-04T11:04:22.055Z,1.00
2023-04-04T11:07:08.968Z,1.00
2023-04-04T11:09:54.801Z,1.00
2023-04-04T11:12:33.484Z,1.00
2023-04-04T11:15:13.149Z,1.00
2023-04-04T11:18:21.390Z,1.00
2023-04-04T11:20:55.747Z,1.00
2023-04-04T11:23:27.388Z,1.00
2023-04-04T11:25:59.438Z,1.00
2023-04-04T11:28:43.797Z,1.00
2023-04-04T11:31:28.015Z,1.00
2023-04-04T11:33:58.909Z,1.00
2023-04-04T11:36:57.894Z,1.00
2023-04-04T11:39:28.374Z,1.00
2023-04-04T11:42:03.946Z,1.00
2023-04-04T11:44:34.151Z,1.00
2023-04-04T11:47:05.264Z,1.00
2023-04-04T11:49:37.407Z,1.00
2023-04-04T11:52:08.921Z,1.00
2023-04-04T11:54:38.701Z,1.00
2023-04-04T11:57:08.627Z,1.00
2023-04-04T11:59:41.692Z,1.00
2023-04-04T12:02:11.124Z,1.00
2023-04-04T12:04:43.500Z,1.00
2023-04-04T12:07:13.658Z,1.00
2023-04-04T12:09:42.289Z,1.00
2023-04-04T12:12:16.289Z,1.00
2023-04-04T12:14:45.176Z,1.00
2023-04-04T12:17:14.403Z,1.00
2023-04-04T12:19:44.332Z,1.00
2023-04-04T12:22:12.630Z,1.00
2023-04-04T12:24:41.168Z,1.00
2023-04-04T12:27:09.711Z,1.00
2023-04-04T12:29:39.588Z,1.00
2023-04-04T12:32:10.753Z,1.00
2023-04-04T12:34:48.737Z,1.00
2023-04-04T12:37:19.532Z,1.00
2023-04-04T12:39:50.013Z,1.00
2023-04-04T12:42:23.673Z,1.00
2023-04-04T12:44:54.853Z,1.00
2023-04-04T12:47:26.237Z,1.00
2023-04-04T12:49:55.878Z,1.00
2023-04-04T12:52:28.143Z,1.00
2023-04-04T12:55:08.146Z,1.00
2023-04-04T12:57:37.894Z,1.00
2023-04-04T13:00:09.583Z,1.00
2023-04-04T13:02:39.686Z,1.00
2023-04-04T13:05:11.066Z,1.00
2023-04-04T13:07:43.507Z,1.00
2023-04-04T13:10:15.815Z,1.00
2023-04-04T13:12:58.481Z,1.00
2023-04-04T13:15:52.927Z,1.00
2023-04-04T13:18:24.532Z,1.00
2023-04-04T13:20:54.045Z,1.00
2023-04-04T13:23:22.987Z,1.00
2023-04-04T13:25:51.341Z,1.00
2023-04-04T13:28:19.570Z,1.00
2023-04-04T13:30:49.415Z,1.00
2023-04-04T13:33:19.943Z,1.00
2023-04-04T13:35:48.298Z,99.90
2023-04-04T13:38:18.271Z,1.00
2023-04-04T13:40:47.665Z,1.00
2023-04-04T13:43:17.205Z,1.00
2023-04-04T13:45:46.480Z,99.90
2023-04-04T13:48:14.788Z,99.90
2023-04-04T13:50:50.967Z,99.90
2023-04-04T13:53:19.636Z,99.90
2023-04-04T13:56:13.109Z,99.90
2023-04-04T13:58:36.449Z,99.90
2023-04-04T14:01:06.047Z,99.90
2023-04-04T14:03:34.476Z,99.90
2023-04-04T14:06:10.340Z,99.90
2023-04-04T14:08:40.887Z,99.90
2023-04-04T14:11:09.142Z,99.90
2023-04-04T14:13:37.671Z,99.90
2023-04-04T14:16:06.609Z,99.90
2023-04-04T14:18:35.384Z,99.90
2023-04-04T14:21:06.111Z,99.90
2023-04-04T14:23:34.369Z,99.90
2023-04-04T14:26:04.275Z,99.90
2023-04-04T14:28:32.723Z,99.90
2023-04-04T14:31:01.049Z,99.90
2023-04-04T14:33:29.247Z,99.90
2023-04-04T14:35:57.556Z,99.90
2023-04-04T14:38:27.079Z,99.90
2023-04-04T14:40:55.409Z,99.90
2023-04-04T14:43:24.146Z,99.90
2023-04-04T14:45:52.461Z,99.90
2023-04-04T14:48:20.721Z,99.90
2023-04-04T14:50:49.097Z,99.90
2023-04-04T14:53:17.289Z,99.90
2023-04-04T14:55:46.937Z,99.90
2023-04-04T14:58:15.194Z,99.90
2023-04-04T15:00:43.524Z,99.90
2023-04-04T15:03:11.897Z,99.90
2023-04-04T15:05:40.387Z,99.90
2023-04-04T15:08:09.147Z,99.90
2023-04-04T15:10:37.455Z,99.90
2023-04-04T15:13:07.077Z,99.90
2023-04-04T15:15:35.445Z,99.90
2023-04-04T15:18:04.014Z,99.90
2023-04-04T15:20:32.310Z,99.90
2023-04-04T15:23:00.578Z,99.90
2023-04-04T15:25:29.764Z,99.90
2023-04-04T15:27:58.026Z,99.90
2023-04-04T15:30:28.054Z,99.90
2023-04-04T15:32:56.626Z,99.90
2023-04-04T15:35:25.377Z,99.90
2023-04-04T15:37:53.669Z,99.90
2023-04-04T15:40:22.168Z,99.90
2023-04-04T15:42:51.240Z,99.90
2023-04-04T15:45:19.558Z,96.70
2023-04-04T15:47:49.210Z,79.70
2023-04-04T15:50:17.570Z,30.90
2023-04-04T15:52:47.645Z,75.40
2023-04-04T15:55:17.306Z,99.90
2023-04-04T15:57:46.013Z,61.10
2023-04-04T16:00:16.799Z,37.20
2023-04-04T16:02:45.362Z,53.70
2023-04-04T16:05:15.208Z,82.80
2023-04-04T16:07:43.620Z,59.80
2023-04-04T16:10:12.261Z,11.00
2023-04-04T16:12:40.840Z,1.00
2023-04-04T16:15:11.776Z,1.00
2023-04-04T16:17:40.172Z,1.00
2023-04-04T16:20:09.645Z,1.00
2023-04-04T16:22:39.669Z,99.90
2023-04-04T16:25:09.505Z,99.90
2023-04-04T16:27:38.366Z,99.90
2023-04-04T16:30:07.783Z,99.90
2023-04-04T16:32:36.156Z,99.90
2023-04-04T16:35:04.443Z,99.90
2023-04-04T16:37:32.858Z,99.90
2023-04-04T16:40:02.824Z,99.90
2023-04-04T16:42:31.116Z,99.90
2023-04-04T16:44:59.934Z,99.90
2023-04-04T16:47:29.401Z,99.90
2023-04-04T16:49:58.491Z,99.90
2023-04-04T16:52:26.802Z,99.90
2023-04-04T16:54:55.348Z,16.50
2023-04-04T16:57:25.183Z,99.90
2023-04-04T16:59:53.442Z,99.90
2023-04-04T17:02:21.788Z,1.00
2023-04-04T17:04:51.228Z,1.00
2023-04-04T17:07:21.239Z,1.00
2023-04-04T17:09:51.374Z,1.00
2023-04-04T17:12:20.133Z,68.80
2023-04-04T17:14:49.664Z,99.90
2023-04-04T17:17:18.346Z,1.00
2023-04-04T17:19:46.758Z,1.00
2023-04-04T17:22:16.025Z,99.90
2023-04-04T17:24:44.796Z,1.00
2023-04-04T17:27:13.196Z,99.90
2023-04-04T17:29:41.809Z,24.90
2023-04-04T17:32:11.661Z,1.00
2023-04-04T17:34:40.156Z,1.00
2023-04-04T17:37:11.158Z,99.90
2023-04-04T17:39:39.842Z,99.90
2023-04-04T17:42:08.825Z,99.90
2023-04-04T17:44:38.086Z,99.90
2023-04-04T17:47:06.646Z,99.90
2023-04-04T17:49:37.094Z,1.00
2023-04-04T17:52:05.625Z,99.90
2023-04-04T17:54:34.036Z,99.90
2023-04-04T17:57:03.336Z,99.90
2023-04-04T17:59:31.730Z,99.90
2023-04-04T18:02:00.150Z,99.90
2023-04-04T18:04:28.559Z,99.90
2023-04-04T18:06:58.397Z,99.90
2023-04-04T18:09:28.855Z,99.90
2023-04-04T18:11:57.624Z,1.00
2023-04-04T18:14:26.467Z,1.00
2023-04-04T18:16:55.025Z,1.00
2023-04-04T18:19:23.368Z,1.00
2023-04-04T18:21:52.945Z,1.00
2023-04-04T18:24:22.632Z,1.00
2023-04-04T18:26:52.146Z,1.00
2023-04-04T18:29:20.903Z,1.00
2023-04-04T18:31:49.638Z,1.00
2023-04-04T18:34:18.596Z,1.00
2023-04-04T18:36:49.343Z,1.00
2023-04-04T18:39:18.554Z,1.00
2023-04-04T18:41:49.022Z,1.00
2023-04-04T18:44:17.442Z,1.00
2023-04-04T18:46:46.334Z,1.00
2023-04-04T18:49:14.784Z,1.00
2023-04-04T18:51:43.317Z,1.00
2023-04-04T18:54:11.922Z,1.00
2023-04-04T18:56:40.354Z,1.00
2023-04-04T18:59:10.097Z,1.00
2023-04-04T19:01:39.966Z,1.00
2023-04-04T19:04:09.548Z,1.00
2023-04-04T19:06:38.913Z,1.00
2023-04-04T19:09:10.674Z,1.00
2023-04-04T19:11:39.684Z,1.00
2023-04-04T19:14:09.548Z,1.00
2023-04-04T19:16:38.331Z,4.40
2023-04-04T19:19:07.088Z,10.00
2023-04-04T19:21:35.581Z,18.60
2023-04-04T19:24:04.318Z,22.30
2023-04-04T19:26:32.932Z,26.00
2023-04-04T19:29:01.284Z,29.50
2023-04-04T19:31:34.345Z,33.90
2023-04-04T19:34:03.853Z,40.10
2023-04-04T19:36:37.854Z,49.60
2023-04-04T19:39:08.970Z,59.50
2023-04-04T19:41:39.413Z,71.20
2023-04-04T19:44:16.889Z,82.20
2023-04-04T19:46:47.869Z,94.00
2023-04-04T19:49:17.851Z,94.50
2023-04-04T19:51:52.079Z,93.60
2023-04-04T19:54:26.862Z,93.60
2023-04-04T19:57:01.033Z,94.70
2023-04-04T20:00:03.153Z,95.00
2023-04-04T20:02:53.535Z,95.40
2023-04-04T20:05:55.425Z,97.10
2023-04-04T20:08:25.149Z,99.00
2023-04-04T20:10:57.885Z,99.90
2023-04-04T20:13:28.122Z,99.90
2023-04-04T20:16:03.559Z,99.90
2023-04-04T20:18:34.612Z,99.90
2023-04-04T20:21:08.169Z,99.90
2023-04-04T20:23:49.383Z,99.90
2023-04-04T20:26:44.210Z,99.90
2023-04-04T20:29:14.292Z,99.90
2023-04-04T20:31:45.161Z,99.90
2023-04-04T20:34:45.129Z,99.90
2023-04-04T20:37:14.839Z,99.90
2023-04-04T20:39:47.949Z,99.80
2023-04-04T20:42:32.429Z,99.90
2023-04-04T20:45:11.876Z,99.90
2023-04-04T20:47:44.386Z,99.90
2023-04-04T20:50:45.041Z,99.90
2023-04-04T20:53:20.088Z,99.90
2023-04-04T20:55:50.496Z,99.90
2023-04-04T20:58:27.933Z,99.90
2023-04-04T21:00:58.029Z,99.90
2023-04-04T21:03:32.793Z,99.90
2023-04-04T21:06:10.814Z,99.90
2023-04-04T21:08:42.802Z,99.90
2023-04-04T21:11:12.155Z,99.90
2023-04-04T21:13:42.371Z,99.90
2023-04-04T21:16:12.225Z,99.90
2023-04-04T21:18:41.793Z,99.90
2023-04-04T21:21:19.595Z,99.90
2023-04-04T21:23:50.810Z,99.90
2023-04-04T21:26:31.791Z,99.90
2023-04-04T21:29:01.946Z,99.90
2023-04-04T21:31:36.921Z,99.90
2023-04-04T21:34:10.597Z,99.90
2023-04-04T21:36:41.776Z,99.90
2023-04-04T21:39:13.277Z,99.90
2023-04-04T21:41:43.421Z,99.90
2023-04-04T21:44:12.182Z,99.90
2023-04-04T21:46:41.999Z,99.90
2023-04-04T21:49:10.670Z,99.90
2023-04-04T21:51:40.430Z,99.90
2023-04-04T21:54:08.763Z,99.90
2023-04-04T21:56:38.183Z,99.90
2023-04-04T21:59:08.922Z,99.90
2023-04-04T22:01:38.060Z,99.90
2023-04-04T22:04:06.584Z,99.90
2023-04-04T22:06:34.904Z,99.90
2023-04-04T22:09:05.567Z,99.90
2023-04-04T22:11:34.958Z,99.90
2023-04-04T22:14:07.200Z,99.90
2023-04-04T22:16:39.082Z,99.90
2023-04-04T22:19:11.034Z,99.90
2023-04-04T22:21:47.931Z,99.90
2023-04-04T22:24:18.938Z,99.90
2023-04-04T22:26:47.651Z,99.90
2023-04-04T22:29:15.868Z,99.90
2023-04-04T22:31:44.339Z,99.90
2023-04-04T22:34:14.948Z,99.90
2023-04-04T22:36:44.523Z,99.90
2023-04-04T22:39:15.612Z,99.90
2023-04-04T22:41:45.580Z,99.90
2023-04-04T22:44:13.935Z,99.90
2023-04-04T22:46:42.328Z,99.90
2023-04-04T22:49:10.876Z,99.90
2023-04-04T22:51:45.779Z,99.90
2023-04-04T22:54:16.062Z,99.90
2023-04-04T22:56:46.416Z,99.90
2023-04-04T22:59:14.757Z,99.90
2023-04-04T23:01:43.251Z,99.90
2023-04-04T23:04:11.598Z,99.90
2023-04-04T23:06:39.968Z,99.90
2023-04-04T23:09:08.774Z,99.90
2023-04-04T23:11:37.763Z,99.90
2023-04-04T23:14:09.199Z,99.90
2023-04-04T23:16:38.322Z,99.90
2023-04-04T23:19:06.585Z,99.90
2023-04-04T23:21:35.095Z,99.90
2023-04-04T23:24:03.485Z,99.90
2023-04-04T23:26:32.447Z,99.90
2023-04-04T23:29:01.428Z,99.90
2023-04-04T23:31:31.181Z,99.90
2023-04-04T23:33:59.881Z,99.90
2023-04-04T23:36:28.297Z,99.90
2023-04-04T23:38:56.614Z,99.90
2023-04-04T23:41:24.920Z,99.90
2023-04-04T23:43:54.276Z,99.90
2023-04-04T23:46:22.610Z,99.90
2023-04-04T23:48:52.265Z,99.90
2023-04-04T23:51:21.402Z,99.90
2023-04-04T23:53:49.781Z,99.90
2023-04-04T23:56:18.126Z,99.90
2023-04-04T23:58:46.380Z,99.90
